createdAt,value
2018-04-18T00:02:20.439Z,12.40
2018-04-18T00:04:46.428Z,12.30
2018-04-18T00:07:13.905Z,12.30
2018-04-18T00:09:40.611Z,12.20
2018-04-18T00:12:07.221Z,12.20
2018-04-18T00:14:33.248Z,12.20
2018-04-18T00:16:59.942Z,12.10
2018-04-18T00:19:25.895Z,12.10
2018-04-18T00:21:51.861Z,12.00
2018-04-18T00:24:18.589Z,12.10
2018-04-18T00:26:44.560Z,12.10
2018-04-18T00:29:11.295Z,12.20
2018-04-18T00:31:37.643Z,12.20
2018-04-18T00:34:03.634Z,12.10
2018-04-18T00:36:29.603Z,12.00
2018-04-18T00:38:55.580Z,12.00
2018-04-18T00:41:21.545Z,12.10
2018-04-18T00:43:47.903Z,12.00
2018-04-18T00:46:13.880Z,11.90
2018-04-18T00:48:40.615Z,11.80
2018-04-18T00:51:06.608Z,11.80
2018-04-18T00:53:32.563Z,11.80
2018-04-18T00:55:58.707Z,11.90
2018-04-18T00:58:24.672Z,11.90
2018-04-18T01:00:51.392Z,11.90
2018-04-18T01:03:17.378Z,11.80
2018-04-18T01:05:43.346Z,11.80
2018-04-18T01:08:09.348Z,11.80
2018-04-18T01:10:35.779Z,11.80
2018-04-18T01:13:02.494Z,11.70
2018-04-18T01:15:28.482Z,11.60
2018-04-18T01:17:54.436Z,11.60
2018-04-18T01:20:20.403Z,11.60
2018-04-18T01:22:46.382Z,11.40
2018-04-18T01:25:12.350Z,11.50
2018-04-18T01:27:38.378Z,11.50
2018-04-18T01:30:04.347Z,11.60
2018-04-18T01:32:30.303Z,11.50
2018-04-18T01:34:56.288Z,11.50
2018-04-18T01:37:22.254Z,11.40
2018-04-18T01:39:48.228Z,11.40
2018-04-18T01:42:14.956Z,11.30
2018-04-18T01:44:40.978Z,11.30
2018-04-18T01:47:06.988Z,11.50
2018-04-18T01:49:33.346Z,11.40
2018-04-18T01:51:59.324Z,11.40
2018-04-18T01:54:26.033Z,11.10
2018-04-18T01:56:52.005Z,11.10
2018-04-18T01:59:18.727Z,11.10
2018-04-18T02:01:44.677Z,11.10
2018-04-18T02:04:10.692Z,11.10
2018-04-18T02:06:36.796Z,11.10
2018-04-18T02:09:02.782Z,11.00
2018-04-18T02:11:28.777Z,11.00
2018-04-18T02:13:54.731Z,11.00
2018-04-18T02:16:20.703Z,11.10
2018-04-18T02:18:46.679Z,11.00
2018-04-18T02:21:12.654Z,11.00
2018-04-18T02:23:39.013Z,10.90
2018-04-18T02:26:04.990Z,11.00
2018-04-18T02:28:30.971Z,11.00
2018-04-18T02:30:56.952Z,10.90
2018-04-18T02:33:22.927Z,10.80
2018-04-18T02:35:48.904Z,10.70
2018-04-18T02:38:15.656Z,10.80
2018-04-18T02:40:42.391Z,10.80
2018-04-18T02:43:08.429Z,10.80
2018-04-18T02:45:34.424Z,10.70
2018-04-18T02:48:00.412Z,10.80
2018-04-18T02:50:26.410Z,10.80
2018-04-18T02:52:52.376Z,10.70
2018-04-18T02:55:18.486Z,10.70
2018-04-18T02:57:44.442Z,10.70
2018-04-18T03:00:11.353Z,10.70
2018-04-18T03:02:37.342Z,10.80
2018-04-18T03:05:03.331Z,10.70
2018-04-18T03:07:29.311Z,10.70
2018-04-18T03:09:55.280Z,10.60
2018-04-18T03:12:21.271Z,10.50
2018-04-18T03:14:47.235Z,10.50
2018-04-18T03:17:13.942Z,10.50
2018-04-18T03:19:40.104Z,10.50
2018-04-18T03:22:06.115Z,10.40
2018-04-18T03:24:32.118Z,10.40
2018-04-18T03:26:58.071Z,10.40
2018-04-18T03:29:24.050Z,10.40
2018-04-18T03:31:50.020Z,10.40
2018-04-18T03:34:15.980Z,10.30
2018-04-18T03:36:42.043Z,10.40
2018-04-18T03:39:08.052Z,10.40
2018-04-18T03:41:34.014Z,10.30
2018-04-18T03:43:59.964Z,10.30
2018-04-18T03:46:26.072Z,10.30
2018-04-18T03:48:52.047Z,10.20
2018-04-18T03:51:18.751Z,10.20
2018-04-18T03:53:44.719Z,10.20
2018-04-18T03:56:10.738Z,10.20
2018-04-18T03:58:36.744Z,10.20
2018-04-18T04:01:02.714Z,10.20
2018-04-18T04:03:28.684Z,10.20
2018-04-18T04:06:02.394Z,10.20
2018-04-18T04:08:29.103Z,10.10
2018-04-18T04:10:55.067Z,10.10
2018-04-18T04:13:21.139Z,10.00
2018-04-18T04:15:47.830Z,9.90
2018-04-18T04:18:26.254Z,9.90
2018-04-18T04:21:04.611Z,10.00
2018-04-18T04:23:43.072Z,10.00
2018-04-18T04:26:09.804Z,10.10
2018-04-18T04:28:35.908Z,10.10
2018-04-18T04:31:01.886Z,10.10
2018-04-18T04:33:28.613Z,10.00
2018-04-18T04:35:54.591Z,10.00
2018-04-18T04:38:20.547Z,10.10
2018-04-18T04:40:46.539Z,10.10
2018-04-18T04:43:12.494Z,10.10
2018-04-18T04:45:39.399Z,10.20
2018-04-18T04:48:05.431Z,10.20
2018-04-18T04:50:31.404Z,10.30
2018-04-18T04:52:57.372Z,10.40
2018-04-18T04:55:23.351Z,10.50
2018-04-18T04:57:49.307Z,10.60
2018-04-18T05:00:15.292Z,10.70
2018-04-18T05:02:41.349Z,10.80
2018-04-18T05:05:07.336Z,11.00
2018-04-18T05:07:33.611Z,11.30
2018-04-18T05:09:59.572Z,11.70
2018-04-18T05:12:25.527Z,12.30
2018-04-18T05:14:52.579Z,13.40
2018-04-18T05:17:18.539Z,13.40
2018-04-18T05:19:45.239Z,14.50
2018-04-18T05:22:11.427Z,14.50
2018-04-18T05:24:37.450Z,15.30
2018-04-18T05:27:04.159Z,15.90
2018-04-18T05:29:30.129Z,15.80
2018-04-18T05:31:56.096Z,16.20
2018-04-18T05:34:22.067Z,17.00
2018-04-18T05:36:48.035Z,17.50
2018-04-18T05:39:14.367Z,18.80
2018-04-18T05:41:40.352Z,19.70
2018-04-18T05:44:06.376Z,20.20
2018-04-18T05:46:33.110Z,20.50
2018-04-18T05:48:59.172Z,20.50
2018-04-18T05:51:25.471Z,21.40
2018-04-18T05:53:51.448Z,22.30
2018-04-18T05:56:18.171Z,24.30
2018-04-18T05:58:44.216Z,24.20
2018-04-18T06:01:10.211Z,24.70
2018-04-18T06:03:36.266Z,25.90
2018-04-18T06:06:02.241Z,26.30
2018-04-18T06:08:28.988Z,27.10
2018-04-18T06:10:55.705Z,27.90
2018-04-18T06:13:21.688Z,27.80
2018-04-18T06:15:48.401Z,28.50
2018-04-18T06:18:14.402Z,28.50
2018-04-18T06:20:40.414Z,29.40
2018-04-18T06:23:07.232Z,30.00
2018-04-18T06:25:33.200Z,30.00
2018-04-18T06:27:59.911Z,30.90
2018-04-18T06:30:25.867Z,30.80
2018-04-18T06:32:51.830Z,30.30
2018-04-18T06:35:17.794Z,31.60
2018-04-18T06:37:43.978Z,31.20
2018-04-18T06:40:10.021Z,31.30
2018-04-18T06:42:36.749Z,30.60
2018-04-18T06:45:02.740Z,30.60
2018-04-18T06:47:28.695Z,31.00
2018-04-18T06:49:54.654Z,31.60
2018-04-18T06:52:20.640Z,31.00
2018-04-18T06:54:46.611Z,31.30
2018-04-18T06:57:12.612Z,31.00
2018-04-18T06:59:38.647Z,30.60
2018-04-18T07:02:04.598Z,30.30
2018-04-18T07:04:30.582Z,30.90
2018-04-18T07:06:56.526Z,31.30
2018-04-18T07:09:22.491Z,31.90
2018-04-18T07:11:48.488Z,32.70
2018-04-18T07:14:14.444Z,33.30
2018-04-18T07:16:41.152Z,33.50
2018-04-18T07:19:07.539Z,33.40
2018-04-18T07:21:34.246Z,34.30
2018-04-18T07:24:00.214Z,34.20
2018-04-18T07:26:26.181Z,34.60
2018-04-18T07:28:52.150Z,34.60
2018-04-18T07:31:18.113Z,34.90
2018-04-18T07:33:44.103Z,35.30
2018-04-18T07:36:10.166Z,35.90
2018-04-18T07:38:36.185Z,36.10
2018-04-18T07:41:02.184Z,36.30
2018-04-18T07:43:28.895Z,36.90
2018-04-18T07:45:54.870Z,36.80
2018-04-18T07:48:21.597Z,36.70
2018-04-18T07:50:47.567Z,36.60
2018-04-18T07:53:13.526Z,36.90
2018-04-18T07:55:39.522Z,36.40
2018-04-18T07:58:06.305Z,36.50
2018-04-18T08:00:32.270Z,36.50
2018-04-18T08:02:58.232Z,36.70
2018-04-18T08:05:24.559Z,37.00
2018-04-18T08:07:50.528Z,37.00
2018-04-18T08:10:17.233Z,37.20
2018-04-18T08:12:43.223Z,37.20
2018-04-18T08:15:09.944Z,37.10
2018-04-18T08:17:35.941Z,37.10
2018-04-18T08:20:01.911Z,37.60
2018-04-18T08:22:27.910Z,36.90
2018-04-18T08:24:53.887Z,37.50
2018-04-18T08:27:19.859Z,37.10
2018-04-18T08:29:46.042Z,37.10
2018-04-18T08:32:12.001Z,37.20
2018-04-18T08:34:37.988Z,36.80
2018-04-18T08:37:04.118Z,36.90
2018-04-18T08:39:30.081Z,36.50
2018-04-18T08:41:56.091Z,37.10
2018-04-18T08:44:22.052Z,37.00
2018-04-18T08:46:48.046Z,37.40
2018-04-18T08:49:14.039Z,36.90
2018-04-18T08:51:40.806Z,36.70
2018-04-18T08:54:06.876Z,36.70
2018-04-18T08:56:32.863Z,36.30
2018-04-18T08:59:00.328Z,36.10
2018-04-18T09:01:26.476Z,36.10
2018-04-18T09:03:52.444Z,35.80
2018-04-18T09:06:19.158Z,35.30
2018-04-18T09:08:45.114Z,35.30
2018-04-18T09:11:11.139Z,34.50
2018-04-18T09:13:37.895Z,32.70
2018-04-18T09:16:03.852Z,32.70
2018-04-18T09:18:30.564Z,31.20
2018-04-18T09:20:56.545Z,31.10
2018-04-18T09:23:22.864Z,30.00
2018-04-18T09:25:48.835Z,29.20
2018-04-18T09:28:14.811Z,27.90
2018-04-18T09:30:40.818Z,27.40
2018-04-18T09:33:06.890Z,26.50
2018-04-18T09:35:33.634Z,25.40
2018-04-18T09:37:59.623Z,25.40
2018-04-18T09:40:25.719Z,25.00
2018-04-18T09:42:53.167Z,24.30
2018-04-18T09:45:19.134Z,24.20
2018-04-18T09:47:45.127Z,24.20
2018-04-18T09:50:11.171Z,23.80
2018-04-18T09:52:37.571Z,23.90
2018-04-18T09:55:04.297Z,23.90
2018-04-18T09:57:30.264Z,23.90
2018-04-18T09:59:56.972Z,23.70
2018-04-18T10:02:28.929Z,23.60
2018-04-18T10:04:54.923Z,23.70
2018-04-18T10:07:21.626Z,23.50
2018-04-18T10:09:47.596Z,23.40
2018-04-18T10:12:13.598Z,23.20
2018-04-18T10:14:39.567Z,23.30
2018-04-18T10:17:05.887Z,23.20
2018-04-18T10:19:31.850Z,23.20
2018-04-18T10:21:57.813Z,23.30
2018-04-18T10:24:23.775Z,23.30
2018-04-18T10:26:49.756Z,23.20
2018-04-18T10:29:15.728Z,23.20
2018-04-18T10:31:41.714Z,23.10
2018-04-18T10:34:07.735Z,23.10
2018-04-18T10:36:33.732Z,23.20
2018-04-18T10:38:59.728Z,23.10
2018-04-18T10:41:25.678Z,23.10
2018-04-18T10:43:53.219Z,22.70
2018-04-18T10:46:19.175Z,22.70
2018-04-18T10:48:45.238Z,22.60
2018-04-18T10:51:11.270Z,22.90
2018-04-18T10:53:38.090Z,23.00
2018-04-18T10:56:04.063Z,23.00
2018-04-18T10:58:30.815Z,23.10
2018-04-18T11:00:56.744Z,23.00
2018-04-18T11:03:23.795Z,22.70
2018-04-18T11:05:50.522Z,22.60
2018-04-18T11:08:16.468Z,22.50
2018-04-18T11:10:42.502Z,22.70
2018-04-18T11:13:08.503Z,22.90
2018-04-18T11:15:34.480Z,23.00
2018-04-18T11:18:00.607Z,22.90
2018-04-18T11:20:26.558Z,23.00
2018-04-18T11:22:53.271Z,23.10
2018-04-18T11:25:19.264Z,23.10
2018-04-18T11:27:45.958Z,23.00
2018-04-18T11:30:12.017Z,23.00
2018-04-18T11:32:37.994Z,23.10
2018-04-18T11:35:04.699Z,23.20
2018-04-18T11:37:30.674Z,23.10
2018-04-18T11:39:57.408Z,23.10
2018-04-18T11:42:23.387Z,23.00
2018-04-18T11:44:49.342Z,23.10
2018-04-18T11:47:15.511Z,23.10
2018-04-18T11:49:41.498Z,23.20
2018-04-18T11:52:07.480Z,23.20
2018-04-18T11:54:33.463Z,23.20
2018-04-18T11:56:59.423Z,23.20
2018-04-18T11:59:25.790Z,23.30
2018-04-18T12:01:51.745Z,23.30
2018-04-18T12:04:18.447Z,23.30
2018-04-18T12:06:44.435Z,23.30
2018-04-18T12:09:10.456Z,23.40
2018-04-18T12:11:36.507Z,23.20
2018-04-18T12:14:02.436Z,23.30
2018-04-18T12:16:28.866Z,23.30
2018-04-18T12:18:54.819Z,23.10
2018-04-18T12:21:22.331Z,23.30
2018-04-18T12:23:48.276Z,23.30
2018-04-18T12:26:21.296Z,23.30
2018-04-18T12:28:47.263Z,23.40
2018-04-18T12:31:13.251Z,23.30
2018-04-18T12:33:39.285Z,23.20
2018-04-18T12:36:05.241Z,23.40
2018-04-18T12:38:31.264Z,23.40
2018-04-18T12:40:57.242Z,23.40
2018-04-18T12:43:23.215Z,23.40
2018-04-18T12:45:49.300Z,23.50
2018-04-18T12:48:15.254Z,23.50
2018-04-18T12:50:41.226Z,23.50
2018-04-18T12:53:07.231Z,23.40
2018-04-18T12:55:33.930Z,23.50
2018-04-18T12:57:59.923Z,23.50
2018-04-18T13:00:26.615Z,23.50
2018-04-18T13:02:52.571Z,23.50
2018-04-18T13:05:18.573Z,23.60
2018-04-18T13:07:44.557Z,23.70
2018-04-18T13:10:10.590Z,23.70
2018-04-18T13:12:36.639Z,23.70
2018-04-18T13:15:02.602Z,23.80
2018-04-18T13:17:28.567Z,23.70
2018-04-18T13:19:54.536Z,23.60
2018-04-18T13:22:20.520Z,23.70
2018-04-18T13:24:46.487Z,23.80
2018-04-18T13:27:12.472Z,23.80
2018-04-18T13:29:39.182Z,23.90
2018-04-18T13:32:05.170Z,23.80
2018-04-18T13:34:31.148Z,23.80
2018-04-18T13:36:57.111Z,24.00
2018-04-18T13:39:23.083Z,24.00
2018-04-18T13:41:49.086Z,23.80
2018-04-18T13:44:15.786Z,23.80
2018-04-18T13:46:41.766Z,23.80
2018-04-18T13:49:07.754Z,23.80
2018-04-18T13:51:33.783Z,23.90
2018-04-18T13:53:59.743Z,23.80
2018-04-18T13:56:25.720Z,23.80
2018-04-18T13:58:52.431Z,24.00
2018-04-18T14:01:18.582Z,23.90
2018-04-18T14:03:44.544Z,24.10
2018-04-18T14:06:11.271Z,23.90
2018-04-18T14:08:37.317Z,23.80
2018-04-18T14:11:04.035Z,23.90
2018-04-18T14:13:30.002Z,23.90
2018-04-18T14:15:55.967Z,24.00
2018-04-18T14:18:22.987Z,24.00
2018-04-18T14:20:48.959Z,24.00
2018-04-18T14:23:14.900Z,24.10
2018-04-18T14:25:41.674Z,24.10
2018-04-18T14:28:07.645Z,24.10
2018-04-18T14:30:33.623Z,24.10
2018-04-18T14:33:00.335Z,24.30
2018-04-18T14:35:26.300Z,24.30
2018-04-18T14:37:53.018Z,24.30
2018-04-18T14:40:18.984Z,24.20
2018-04-18T14:42:45.747Z,24.20
2018-04-18T14:45:12.517Z,24.10
2018-04-18T14:47:38.523Z,24.10
2018-04-18T14:50:05.249Z,24.30
2018-04-18T14:52:31.263Z,24.30
2018-04-18T14:54:57.219Z,24.30
2018-04-18T14:57:23.175Z,24.20
2018-04-18T14:59:49.145Z,24.10
2018-04-18T15:02:15.154Z,24.10
2018-04-18T15:04:41.879Z,24.20
2018-04-18T15:07:07.911Z,24.20
2018-04-18T15:09:34.389Z,24.30
2018-04-18T15:12:01.099Z,24.20
2018-04-18T15:14:27.062Z,24.20
2018-04-18T15:16:53.067Z,24.20
2018-04-18T15:19:19.026Z,24.10
2018-04-18T15:21:45.040Z,24.20
2018-04-18T15:24:11.048Z,24.10
2018-04-18T15:26:37.042Z,24.00
2018-04-18T15:29:03.042Z,24.10
2018-04-18T15:31:29.038Z,24.20
2018-04-18T15:33:55.768Z,24.10
2018-04-18T15:36:21.728Z,24.20
2018-04-18T15:38:48.762Z,24.20
2018-04-18T15:41:14.735Z,24.20
2018-04-18T15:43:40.733Z,24.20
2018-04-18T15:46:06.760Z,24.10
2018-04-18T15:48:34.501Z,24.10
2018-04-18T15:51:00.475Z,24.20
2018-04-18T15:53:27.947Z,24.20
2018-04-18T15:55:53.920Z,24.20
2018-04-18T15:58:20.627Z,23.70
2018-04-18T16:00:46.657Z,23.70
2018-04-18T16:03:12.657Z,23.60
2018-04-18T16:05:38.779Z,23.80
2018-04-18T16:08:05.494Z,23.90
2018-04-18T16:10:31.472Z,23.90
2018-04-18T16:12:58.202Z,24.00
2018-04-18T16:15:24.168Z,24.00
2018-04-18T16:17:50.472Z,24.10
2018-04-18T16:20:17.932Z,24.10
2018-04-18T16:22:43.907Z,24.10
2018-04-18T16:25:10.725Z,24.00
2018-04-18T16:27:36.722Z,24.00
2018-04-18T16:30:02.704Z,24.00
2018-04-18T16:32:28.680Z,24.00
2018-04-18T16:34:54.677Z,24.00
2018-04-18T16:37:20.659Z,24.00
2018-04-18T16:39:46.846Z,23.80
2018-04-18T16:42:12.843Z,23.90
2018-04-18T16:44:38.847Z,24.00
2018-04-18T16:47:05.575Z,23.90
2018-04-18T16:49:31.572Z,23.90
2018-04-18T16:51:57.575Z,23.90
2018-04-18T16:54:23.526Z,23.70
2018-04-18T16:56:49.509Z,23.70
2018-04-18T16:59:15.467Z,23.70
2018-04-18T17:01:41.545Z,23.60
2018-04-18T17:04:07.584Z,23.50
2018-04-18T17:06:33.596Z,23.60
2018-04-18T17:08:59.534Z,23.50
2018-04-18T17:11:25.486Z,23.50
2018-04-18T17:13:51.758Z,23.30
2018-04-18T17:16:17.732Z,23.50
2018-04-18T17:18:44.473Z,23.40
2018-04-18T17:21:10.478Z,23.40
2018-04-18T17:23:36.475Z,23.30
2018-04-18T17:26:02.460Z,23.30
2018-04-18T17:28:29.159Z,23.30
2018-04-18T17:30:55.137Z,23.30
2018-04-18T17:33:21.107Z,23.30
2018-04-18T17:35:47.827Z,23.10
2018-04-18T17:38:13.820Z,23.20
2018-04-18T17:40:39.829Z,23.00
2018-04-18T17:43:06.590Z,22.90
2018-04-18T17:45:33.303Z,22.80
2018-04-18T17:47:59.267Z,22.70
2018-04-18T17:50:25.983Z,22.60
2018-04-18T17:52:51.964Z,22.60
2018-04-18T17:55:19.099Z,22.40
2018-04-18T17:57:45.065Z,22.40
2018-04-18T18:00:11.883Z,22.30
2018-04-18T18:02:37.867Z,22.30
2018-04-18T18:05:03.836Z,22.30
2018-04-18T18:07:30.204Z,22.20
2018-04-18T18:09:56.163Z,22.20
2018-04-18T18:12:22.902Z,21.90
2018-04-18T18:14:48.859Z,21.80
2018-04-18T18:17:15.570Z,21.50
2018-04-18T18:19:41.579Z,21.40
2018-04-18T18:22:07.615Z,21.20
2018-04-18T18:24:33.591Z,21.00
2018-04-18T18:26:59.567Z,20.70
2018-04-18T18:29:25.535Z,20.40
2018-04-18T18:31:51.530Z,20.30
2018-04-18T18:34:18.239Z,20.10
2018-04-18T18:36:44.204Z,20.00
2018-04-18T18:39:10.935Z,20.10
2018-04-18T18:41:36.934Z,20.00
2018-04-18T18:44:02.928Z,19.90
2018-04-18T18:46:29.783Z,19.90
2018-04-18T18:48:56.487Z,19.80
2018-04-18T18:51:22.480Z,19.80
2018-04-18T18:53:49.205Z,19.70
2018-04-18T18:56:15.173Z,19.70
2018-04-18T18:58:41.218Z,19.50
2018-04-18T19:01:07.437Z,19.40
2018-04-18T19:03:34.130Z,18.90
2018-04-18T19:06:00.125Z,18.90
2018-04-18T19:08:26.829Z,18.90
2018-04-18T19:10:53.215Z,18.90
2018-04-18T19:13:19.188Z,18.70
2018-04-18T19:15:45.197Z,18.50
2018-04-18T19:18:11.974Z,18.20
2018-04-18T19:20:38.001Z,18.20
2018-04-18T19:23:03.970Z,18.10
2018-04-18T19:25:29.921Z,18.00
2018-04-18T19:27:55.876Z,18.20
2018-04-18T19:30:21.847Z,18.40
2018-04-18T19:32:47.810Z,18.40
2018-04-18T19:35:13.781Z,18.50
2018-04-18T19:37:39.773Z,18.60
2018-04-18T19:40:06.098Z,18.50
2018-04-18T19:42:32.055Z,18.50
2018-04-18T19:44:58.015Z,18.60
2018-04-18T19:47:23.993Z,18.60
2018-04-18T19:49:49.964Z,18.50
2018-04-18T19:52:15.947Z,18.50
2018-04-18T19:54:41.935Z,18.30
2018-04-18T19:57:07.925Z,18.20
2018-04-18T19:59:34.660Z,18.00
2018-04-18T20:02:00.627Z,18.00
2018-04-18T20:04:26.627Z,18.20
2018-04-18T20:06:52.595Z,17.90
2018-04-18T20:09:19.295Z,17.80
2018-04-18T20:11:45.291Z,17.80
2018-04-18T20:14:11.358Z,17.60
2018-04-18T20:16:37.379Z,17.50
2018-04-18T20:19:03.358Z,17.50
2018-04-18T20:21:29.329Z,17.50
2018-04-18T20:23:55.316Z,17.40
2018-04-18T20:26:21.300Z,17.30
2018-04-18T20:28:48.006Z,17.30
2018-04-18T20:31:14.017Z,17.30
2018-04-18T20:33:40.062Z,17.40
2018-04-18T20:36:06.067Z,17.40
2018-04-18T20:38:32.028Z,17.30
2018-04-18T20:40:58.003Z,17.30
2018-04-18T20:43:23.951Z,17.30
2018-04-18T20:45:50.721Z,17.20
2018-04-18T20:48:16.688Z,17.20
2018-04-18T20:50:42.720Z,17.20
2018-04-18T20:53:08.750Z,17.40
2018-04-18T20:55:34.763Z,17.20
2018-04-18T20:58:01.505Z,17.20
2018-04-18T21:00:28.203Z,17.30
2018-04-18T21:02:54.170Z,17.30
2018-04-18T21:05:20.147Z,17.30
2018-04-18T21:07:46.097Z,17.40
2018-04-18T21:10:12.127Z,17.40
2018-04-18T21:12:38.248Z,17.40
2018-04-18T21:15:04.229Z,17.50
2018-04-18T21:17:30.190Z,17.40
2018-04-18T21:19:56.151Z,17.40
2018-04-18T21:22:22.124Z,17.30
2018-04-18T21:24:48.091Z,17.30
2018-04-18T21:27:14.116Z,17.50
2018-04-18T21:29:40.155Z,17.50
2018-04-18T21:32:06.335Z,17.40
2018-04-18T21:34:32.291Z,17.50
2018-04-18T21:36:58.292Z,17.50
2018-04-18T21:39:24.991Z,17.50
2018-04-18T21:41:51.019Z,17.40
2018-04-18T21:44:16.983Z,17.50
2018-04-18T21:46:43.013Z,17.40
2018-04-18T21:49:09.081Z,17.30
2018-04-18T21:51:34.985Z,17.40
2018-04-18T21:54:00.945Z,17.60
2018-04-18T21:56:26.902Z,17.60
2018-04-18T21:58:53.715Z,17.50
2018-04-18T22:01:19.672Z,17.50
2018-04-18T22:03:45.650Z,17.50
2018-04-18T22:06:11.712Z,17.60
2018-04-18T22:08:37.735Z,17.50
2018-04-18T22:11:03.708Z,17.30
2018-04-18T22:13:29.678Z,17.20
2018-04-18T22:15:55.638Z,17.10
2018-04-18T22:18:21.611Z,17.20
2018-04-18T22:20:47.572Z,17.20
2018-04-18T22:23:14.723Z,17.20
2018-04-18T22:25:40.710Z,17.10
2018-04-18T22:28:06.752Z,17.10
2018-04-18T22:30:32.731Z,17.10
2018-04-18T22:32:59.428Z,17.20
2018-04-18T22:35:25.408Z,17.20
2018-04-18T22:37:51.367Z,17.20
2018-04-18T22:40:17.324Z,17.20
2018-04-18T22:42:43.314Z,17.20
2018-04-18T22:45:09.305Z,17.20
2018-04-18T22:47:35.274Z,17.20
2018-04-18T22:50:01.615Z,17.20
2018-04-18T22:52:27.570Z,17.20
2018-04-18T22:54:54.270Z,17.00
2018-04-18T22:57:20.258Z,16.90
2018-04-18T22:59:46.959Z,16.90
2018-04-18T23:02:12.931Z,16.90
2018-04-18T23:04:38.916Z,17.00
2018-04-18T23:07:04.883Z,16.90
2018-04-18T23:09:30.847Z,16.70
2018-04-18T23:11:56.803Z,16.70
2018-04-18T23:14:23.492Z,16.80
2018-04-18T23:16:49.461Z,16.80
2018-04-18T23:19:15.427Z,16.90
2018-04-18T23:21:42.452Z,16.70
2018-04-18T23:24:09.951Z,16.70
2018-04-18T23:26:35.926Z,16.70
2018-04-18T23:29:01.904Z,16.80
2018-04-18T23:31:27.845Z,16.70
2018-04-18T23:33:53.803Z,16.60
2018-04-18T23:36:19.771Z,16.70
2018-04-18T23:38:45.726Z,16.70
2018-04-18T23:41:11.710Z,16.70
2018-04-18T23:43:37.696Z,16.70
2018-04-18T23:46:03.826Z,16.70
2018-04-18T23:48:29.832Z,16.80
2018-04-18T23:50:55.784Z,16.90
2018-04-18T23:53:21.748Z,16.80
2018-04-18T23:55:47.703Z,16.80
2018-04-18T23:58:14.711Z,16.90
